Time;durP1;ratioP1;P1;durP2;ratioP2;P2;SDS_P1;SDS_P2;PMS_P1;PMS_P2;Temp;Humidity;BMP_temperature;BMP_pressure;BME280_temperature;BME280_humidity;BME280_pressure;Samples;Min_cycle;Max_cycle;Signal;HPM_P1;HPM_P2
2021/03/12 00:00:46;;;;;;;11.93;1.80;;;8.20;76.40;;;;;;5051242;28;20025;-80
2021/03/12 00:03:15;;;;;;;16.10;2.05;;;8.20;76.60;;;;;;5057109;28;20033;-80
2021/03/12 00:05:43;;;;;;;9.57;1.87;;;8.10;76.60;;;;;;5055494;28;20036;-80
2021/03/12 00:08:09;;;;;;;11.52;1.73;;;8.10;76.60;;;;;;5055942;28;20021;-80
2021/03/12 00:10:35;;;;;;;10.43;1.60;;;8.10;76.90;;;;;;5055776;28;20405;-79
2021/03/12 00:13:00;;;;;;;10.07;1.67;;;8.10;77.20;;;;;;5055700;28;20104;-80
2021/03/12 00:15:27;;;;;;;12.05;2.05;;;8.10;77.70;;;;;;5022562;28;20594;-80
2021/03/12 00:17:52;;;;;;;11.23;1.95;;;8.10;78.20;;;;;;5039034;28;20028;-80
2021/03/12 00:20:22;;;;;;;11.10;1.85;;;8.10;77.50;;;;;;5038889;28;20125;-80
2021/03/12 00:22:49;;;;;;;13.27;2.22;;;8.10;77.10;;;;;;5055385;28;20029;-80
2021/03/12 00:25:25;;;;;;;14.77;2.25;;;8.10;77.70;;;;;;5057041;28;20032;-79
2021/03/12 00:27:50;;;;;;;12.25;1.98;;;8.10;78.00;;;;;;5055633;28;20021;-79
2021/03/12 00:30:17;;;;;;;9.93;2.33;;;8.00;77.70;;;;;;5055441;28;20032;-79
2021/03/12 00:32:43;;;;;;;13.07;2.08;;;8.00;77.50;;;;;;5055366;28;20833;-79
2021/03/12 00:35:09;;;;;;;9.13;1.63;;;8.10;77.20;;;;;;5056534;28;20043;-79
2021/03/12 00:37:35;;;;;;;7.93;1.63;;;8.00;76.80;;;;;;5055666;28;20409;-79
2021/03/12 00:40:12;;;;;;;12.25;2.00;;;8.00;76.50;;;;;;5056645;28;20542;-79
2021/03/12 00:42:38;;;;;;;13.48;2.22;;;8.10;76.30;;;;;;5055239;28;20095;-79
2021/03/12 00:45:06;;;;;;;10.77;2.65;;;8.00;75.90;;;;;;5056813;28;20867;-77
2021/03/12 00:47:31;;;;;;;8.82;2.03;;;8.00;76.80;;;;;;5055014;28;20052;-76
2021/03/12 00:49:57;;;;;;;14.65;2.30;;;8.10;77.90;;;;;;5054859;28;20103;-76
2021/03/12 00:52:22;;;;;;;9.88;2.40;;;8.00;78.10;;;;;;5038397;28;20029;-77
2021/03/12 00:54:48;;;;;;;10.93;2.40;;;8.00;77.30;;;;;;5054292;28;20049;-77
2021/03/12 00:57:14;;;;;;;11.93;2.22;;;8.00;77.20;;;;;;5054654;28;20037;-77
2021/03/12 00:59:39;;;;;;;12.13;2.60;;;8.00;77.50;;;;;;5038273;28;20029;-76
2021/03/12 01:02:05;;;;;;;13.45;2.35;;;8.00;77.40;;;;;;5054287;28;20091;-77
2021/03/12 01:04:31;;;;;;;16.45;2.92;;;8.00;77.20;;;;;;5037845;28;20079;-76
2021/03/12 01:06:56;;;;;;;13.52;1.90;;;8.00;76.40;;;;;;5054881;28;20065;-77
2021/03/12 01:09:22;;;;;;;12.23;2.72;;;8.00;76.40;;;;;;5056118;28;20035;-79
2021/03/12 01:11:48;;;;;;;12.68;2.22;;;8.00;75.50;;;;;;5038637;28;20499;-79
2021/03/12 01:14:13;;;;;;;11.02;2.40;;;8.00;75.40;;;;;;5037140;28;20041;-79
2021/03/12 01:16:39;;;;;;;11.95;2.40;;;8.00;74.90;;;;;;5055982;28;21935;-79
2021/03/12 01:19:05;;;;;;;10.85;2.00;;;8.00;74.80;;;;;;5056263;28;20090;-80
2021/03/12 01:21:31;;;;;;;11.25;2.35;;;8.00;74.70;;;;;;5054445;28;20530;-80
2021/03/12 01:23:56;;;;;;;13.73;2.78;;;8.00;74.60;;;;;;5055690;28;20029;-80
2021/03/12 01:26:22;;;;;;;10.02;2.30;;;8.00;73.90;;;;;;5038400;28;20037;-79
2021/03/12 01:28:48;;;;;;;11.90;2.72;;;8.00;74.20;;;;;;5038363;28;20036;-79
2021/03/12 01:31:14;;;;;;;12.43;3.28;;;8.00;73.90;;;;;;5038124;28;20082;-79
2021/03/12 01:33:39;;;;;;;8.50;2.10;;;8.00;73.90;;;;;;5055411;28;20035;-80
2021/03/12 01:36:05;;;;;;;9.40;1.95;;;7.90;73.40;;;;;;5037778;28;20104;-79
2021/03/12 01:38:31;;;;;;;8.65;2.00;;;7.90;73.30;;;;;;5054135;28;20036;-79
2021/03/12 01:40:56;;;;;;;14.38;2.50;;;7.90;73.40;;;;;;5037569;28;20453;-79
2021/03/12 01:43:22;;;;;;;13.35;2.00;;;7.90;74.10;;;;;;5053947;28;20035;-79
2021/03/12 01:45:50;;;;;;;14.65;2.28;;;7.90;74.00;;;;;;5053747;28;20036;-80
2021/03/12 01:48:18;;;;;;;10.85;2.15;;;7.90;73.80;;;;;;5055219;28;20061;-80
2021/03/12 01:50:47;;;;;;;10.63;1.90;;;7.90;73.70;;;;;;5055089;28;20052;-80
2021/03/12 01:53:18;;;;;;;12.25;2.33;;;7.90;73.70;;;;;;5054793;28;20075;-79
2021/03/12 01:55:44;;;;;;;8.68;1.80;;;7.80;73.20;;;;;;5053676;28;20041;-80
2021/03/12 01:58:10;;;;;;;13.25;2.05;;;7.90;73.70;;;;;;5054996;28;20025;-80
2021/03/12 02:00:36;;;;;;;10.95;1.88;;;7.90;73.10;;;;;;5053145;28;20037;-78
2021/03/12 02:03:04;;;;;;;9.88;2.40;;;7.90;73.20;;;;;;5020491;28;20155;-80
2021/03/12 02:05:29;;;;;;;10.85;1.95;;;7.90;73.20;;;;;;5053571;28;20021;-80
2021/03/12 02:07:55;;;;;;;13.00;1.95;;;7.90;73.00;;;;;;5053730;28;20055;-80
2021/03/12 02:10:26;;;;;;;6.07;2.05;;;7.90;72.90;;;;;;5056837;28;20028;-80
2021/03/12 02:13:14;;;;;;;11.88;2.05;;;7.80;73.10;;;;;;5053450;28;20029;-77
2021/03/12 02:16:01;;;;;;;12.50;2.22;;;7.80;73.20;;;;;;5053349;28;20066;-77
2021/03/12 02:18:30;;;;;;;14.27;2.35;;;7.80;73.50;;;;;;5041805;28;20029;-79
2021/03/12 02:21:06;;;;;;;10.77;2.25;;;7.80;73.40;;;;;;5055363;28;20017;-79
2021/03/12 02:23:56;;;;;;;13.55;2.10;;;7.80;73.40;;;;;;5053805;28;20151;-79
2021/03/12 02:26:41;;;;;;;12.10;2.10;;;7.80;73.50;;;;;;5055537;28;20477;-79
2021/03/12 02:29:09;;;;;;;10.68;1.77;;;7.80;73.60;;;;;;5054079;28;20024;-79
2021/03/12 02:31:36;;;;;;;12.15;2.05;;;7.80;73.80;;;;;;5053915;28;20040;-79
2021/03/12 02:34:04;;;;;;;13.18;2.17;;;7.80;73.70;;;;;;5037190;28;20516;-79
2021/03/12 02:36:35;;;;;;;21.60;3.13;;;7.80;74.00;;;;;;5055201;28;20056;-79
2021/03/12 02:39:03;;;;;;;15.07;2.50;;;7.70;74.20;;;;;;5053588;28;20067;-79
2021/03/12 02:41:30;;;;;;;19.48;3.00;;;7.70;74.50;;;;;;5053884;28;20029;-79
2021/03/12 02:43:57;;;;;;;14.55;2.55;;;7.70;74.60;;;;;;5055171;28;20091;-79
2021/03/12 02:46:24;;;;;;;11.68;2.28;;;7.70;74.80;;;;;;5053731;28;20025;-80
2021/03/12 02:48:52;;;;;;;17.52;2.85;;;7.70;74.60;;;;;;5052595;28;20036;-80
2021/03/12 02:51:19;;;;;;;19.42;2.72;;;7.70;75.10;;;;;;5053958;28;20040;-80
2021/03/12 02:53:46;;;;;;;13.82;2.55;;;7.60;75.10;;;;;;5052715;28;20025;-80
2021/03/12 02:56:13;;;;;;;15.43;2.45;;;7.70;75.40;;;;;;5053746;28;20056;-80
2021/03/12 02:58:42;;;;;;;14.48;3.03;;;7.70;75.40;;;;;;5053643;28;20907;-77
2021/03/12 03:01:08;;;;;;;18.25;2.47;;;7.70;75.20;;;;;;5051856;28;20028;-77
2021/03/12 03:03:35;;;;;;;18.75;2.45;;;7.60;75.10;;;;;;5051635;28;20116;-77
2021/03/12 03:06:03;;;;;;;11.25;2.15;;;7.60;74.80;;;;;;5051882;28;20029;-77
2021/03/12 03:08:30;;;;;;;19.55;2.97;;;7.70;74.40;;;;;;5035492;28;20040;-77
2021/03/12 03:10:58;;;;;;;14.05;2.60;;;7.70;74.50;;;;;;5052045;28;20025;-80
2021/03/12 03:13:32;;;;;;;15.05;3.03;;;7.60;74.40;;;;;;5051660;28;20082;-80
2021/03/12 03:15:59;;;;;;;17.65;2.92;;;7.60;74.40;;;;;;5052025;28;20558;-80
2021/03/12 03:18:25;;;;;;;13.75;2.67;;;7.60;74.30;;;;;;5051859;28;20120;-79
2021/03/12 03:20:52;;;;;;;13.80;3.10;;;7.60;74.40;;;;;;5053392;28;20105;-80
2021/03/12 03:23:17;;;;;;;14.77;2.38;;;7.50;74.50;;;;;;5036044;28;20370;-76
2021/03/12 03:25:43;;;;;;;12.77;2.58;;;7.40;74.60;;;;;;5052279;28;20068;-77
2021/03/12 03:28:09;;;;;;;12.45;3.08;;;7.30;74.60;;;;;;5053422;28;20067;-77
2021/03/12 03:30:34;;;;;;;13.80;2.40;;;7.30;75.10;;;;;;5053588;28;20114;-79
2021/03/12 03:33:00;;;;;;;14.25;2.55;;;7.20;75.40;;;;;;5035793;28;20041;-79
2021/03/12 03:35:26;;;;;;;20.10;3.17;;;7.20;75.60;;;;;;5035761;28;20056;-79
2021/03/12 03:37:51;;;;;;;19.73;2.92;;;7.10;75.80;;;;;;5035367;28;20370;-79
2021/03/12 03:40:17;;;;;;;10.25;2.42;;;7.10;75.90;;;;;;5052506;28;20044;-79
2021/03/12 03:42:46;;;;;;;18.40;3.03;;;7.10;75.90;;;;;;5052277;28;20040;-79
2021/03/12 03:45:13;;;;;;;13.57;2.53;;;7.10;75.90;;;;;;5035649;28;20108;-79
2021/03/12 03:47:40;;;;;;;18.80;2.90;;;7.10;75.90;;;;;;5052332;28;20036;-79
2021/03/12 03:50:08;;;;;;;8.38;2.38;;;7.10;75.80;;;;;;5053577;28;20029;-79
2021/03/12 03:52:34;;;;;;;14.77;2.65;;;7.10;76.10;;;;;;5035762;28;20064;-79
2021/03/12 03:55:00;;;;;;;10.65;2.10;;;7.10;76.00;;;;;;5052104;28;20435;-80
2021/03/12 03:57:27;;;;;;;10.77;2.38;;;7.10;76.10;;;;;;5035726;28;20111;-79
2021/03/12 03:59:53;;;;;;;20.67;3.33;;;7.10;75.90;;;;;;5051949;28;20025;-77
2021/03/12 04:02:19;;;;;;;12.52;2.42;;;7.10;76.60;;;;;;5053386;28;20029;-79
2021/03/12 04:04:51;;;;;;;15.13;2.20;;;7.20;75.80;;;;;;5035701;28;20025;-78
2021/03/12 04:07:19;;;;;;;11.93;2.38;;;7.20;75.80;;;;;;5053132;28;20477;-79
2021/03/12 04:09:48;;;;;;;15.98;2.20;;;7.20;75.80;;;;;;5052778;28;20385;-78
2021/03/12 04:12:14;;;;;;;10.98;1.92;;;7.20;75.40;;;;;;5051611;28;20163;-78
2021/03/12 04:14:41;;;;;;;17.35;3.58;;;7.20;75.40;;;;;;5050904;28;20087;-79
2021/03/12 04:17:08;;;;;;;19.10;2.33;;;7.10;75.70;;;;;;5018757;28;20098;-79
2021/03/12 04:19:34;;;;;;;15.52;2.25;;;7.10;75.70;;;;;;5034675;28;20076;-78
2021/03/12 04:22:01;;;;;;;11.73;2.30;;;7.00;75.90;;;;;;5051604;28;20089;-78
2021/03/12 04:24:28;;;;;;;18.30;2.50;;;7.00;76.10;;;;;;5035137;28;20500;-76
2021/03/12 04:26:54;;;;;;;13.90;2.33;;;7.00;76.20;;;;;;5051530;28;20031;-77
2021/03/12 04:29:20;;;;;;;16.55;2.38;;;6.90;76.20;;;;;;5034676;28;20535;-76
2021/03/12 04:31:46;;;;;;;15.02;2.47;;;6.90;76.40;;;;;;5034907;28;20091;-77
2021/03/12 04:34:13;;;;;;;15.07;2.63;;;6.80;76.50;;;;;;5052596;28;20029;-77
2021/03/12 04:36:39;;;;;;;16.00;1.98;;;6.80;76.60;;;;;;5052362;28;20055;-77
2021/03/12 04:39:06;;;;;;;20.23;2.20;;;6.70;76.60;;;;;;5051433;28;20029;-77
2021/03/12 04:41:33;;;;;;;18.05;3.03;;;6.70;76.80;;;;;;5050604;28;20035;-77
2021/03/12 04:43:59;;;;;;;14.88;2.40;;;6.60;77.50;;;;;;5032737;28;20028;-76
2021/03/12 04:46:25;;;;;;;16.02;2.05;;;6.70;77.20;;;;;;5031416;28;20026;-76
2021/03/12 04:48:52;;;;;;;10.30;1.58;;;6.60;77.30;;;;;;5035484;28;20025;-76
2021/03/12 04:51:17;;;;;;;15.40;2.22;;;6.60;77.30;;;;;;5035024;28;20502;-76
2021/03/12 04:53:43;;;;;;;18.75;2.70;;;6.60;77.40;;;;;;5036446;28;20129;-77
2021/03/12 04:56:10;;;;;;;14.25;2.28;;;6.60;77.60;;;;;;5018307;28;20053;-77
2021/03/12 04:58:39;;;;;;;12.98;2.50;;;6.60;77.60;;;;;;5042785;28;20045;-76
2021/03/12 05:01:07;;;;;;;13.68;2.13;;;6.50;77.70;;;;;;5054490;28;20043;-77
2021/03/12 05:03:33;;;;;;;14.95;2.65;;;6.50;77.70;;;;;;5054554;28;20033;-76
2021/03/12 05:05:59;;;;;;;11.75;2.05;;;6.50;77.70;;;;;;5054817;28;20036;-76
2021/03/12 05:08:25;;;;;;;13.63;2.05;;;6.50;77.70;;;;;;5056020;28;20040;-77
2021/03/12 05:11:00;;;;;;;21.83;2.30;;;6.50;77.70;;;;;;5038168;28;20048;-76
2021/03/12 05:13:25;;;;;;;14.52;1.85;;;6.50;77.70;;;;;;5055848;28;20021;-77
2021/03/12 05:15:51;;;;;;;11.02;1.98;;;6.50;77.60;;;;;;5055819;28;20039;-77
2021/03/12 05:18:17;;;;;;;17.45;2.08;;;6.50;77.60;;;;;;5037866;28;20037;-76
2021/03/12 05:20:43;;;;;;;11.75;1.98;;;6.60;77.50;;;;;;5037446;28;20024;-76
2021/03/12 05:23:08;;;;;;;19.08;2.80;;;6.60;77.30;;;;;;5055584;28;20025;-77
2021/03/12 05:25:34;;;;;;;12.70;2.20;;;6.60;77.20;;;;;;5054399;28;20029;-78
2021/03/12 05:28:00;;;;;;;11.85;2.03;;;6.60;77.20;;;;;;5037580;28;20025;-78
2021/03/12 05:30:26;;;;;;;12.27;2.40;;;6.60;77.20;;;;;;5054159;28;20482;-78
2021/03/12 05:32:52;;;;;;;13.73;2.47;;;6.60;77.10;;;;;;5054136;28;20389;-79
2021/03/12 05:35:17;;;;;;;11.63;2.28;;;6.70;77.00;;;;;;5054244;28;20032;-80
2021/03/12 05:37:43;;;;;;;18.23;3.22;;;6.70;76.90;;;;;;5037445;28;20029;-80
2021/03/12 05:40:09;;;;;;;15.45;2.22;;;6.70;77.00;;;;;;5053711;28;20036;-80
2021/03/12 05:42:37;;;;;;;15.52;2.40;;;6.70;77.00;;;;;;5055061;28;20025;-80
2021/03/12 05:45:02;;;;;;;13.73;2.45;;;6.70;76.90;;;;;;5053904;28;20543;-80
2021/03/12 05:47:29;;;;;;;17.63;2.75;;;6.70;76.80;;;;;;5037439;28;20039;-80
2021/03/12 05:49:57;;;;;;;10.70;2.08;;;6.70;76.70;;;;;;5037323;28;20029;-80
2021/03/12 05:52:23;;;;;;;14.63;2.10;;;6.70;76.70;;;;;;5053670;28;20033;-80
2021/03/12 05:54:49;;;;;;;15.27;2.50;;;6.70;76.70;;;;;;5053827;28;20123;-80
2021/03/12 05:57:15;;;;;;;16.27;3.03;;;6.70;76.80;;;;;;5054869;28;20076;-79
2021/03/12 05:59:41;;;;;;;12.40;2.10;;;6.70;76.90;;;;;;5053643;28;20029;-80
2021/03/12 06:02:07;;;;;;;10.35;2.03;;;6.70;77.00;;;;;;5037732;28;20436;-79
2021/03/12 06:04:32;;;;;;;10.73;2.10;;;6.70;77.10;;;;;;5037639;28;20079;-79
2021/03/12 06:06:58;;;;;;;16.90;1.88;;;6.70;77.20;;;;;;5055459;28;20025;-79
2021/03/12 06:09:24;;;;;;;9.85;1.80;;;6.70;77.30;;;;;;5037306;28;20113;-79
2021/03/12 06:11:54;;;;;;;14.57;2.28;;;6.70;77.30;;;;;;5053813;28;20079;-79
2021/03/12 06:14:41;;;;;;;13.48;2.47;;;6.70;77.40;;;;;;5054275;28;20032;-79
2021/03/12 06:17:07;;;;;;;14.90;1.88;;;6.70;77.50;;;;;;5042874;28;20037;-80
2021/03/12 06:19:33;;;;;;;18.05;2.70;;;6.70;77.70;;;;;;5054531;28;20040;-77
2021/03/12 06:22:07;;;;;;;16.70;2.33;;;6.70;78.00;;;;;;5036763;28;20497;-77
2021/03/12 06:24:34;;;;;;;18.02;2.92;;;6.70;78.20;;;;;;5059581;28;20523;-77
2021/03/12 06:27:00;;;;;;;15.43;2.22;;;6.70;78.90;;;;;;5073465;28;20476;-77
2021/03/12 06:29:35;;;;;;;15.23;2.78;;;6.70;78.50;;;;;;5064629;28;20029;-79
2021/03/12 06:32:02;;;;;;;14.20;2.08;;;6.70;78.50;;;;;;5053153;28;20036;-79
2021/03/12 06:34:28;;;;;;;19.30;2.30;;;6.70;78.70;;;;;;5052451;28;20036;-79
2021/03/12 06:36:54;;;;;;;21.10;3.05;;;6.80;78.90;;;;;;5052757;28;20047;-78
2021/03/12 06:39:30;;;;;;;22.70;2.58;;;6.80;79.00;;;;;;5035921;28;20163;-79
2021/03/12 06:41:55;;;;;;;18.27;3.25;;;6.80;79.10;;;;;;5052557;28;20032;-78
2021/03/12 06:44:28;;;;;;;17.95;2.95;;;6.80;79.00;;;;;;5035894;28;20029;-78
2021/03/12 06:46:55;;;;;;;26.27;3.55;;;6.80;79.20;;;;;;5053948;28;20093;-78
2021/03/12 06:49:21;;;;;;;15.18;2.67;;;6.90;79.30;;;;;;5036243;28;20028;-78
2021/03/12 06:52:01;;;;;;;19.20;2.80;;;6.90;79.40;;;;;;5036166;28;20036;-79
2021/03/12 06:54:29;;;;;;;17.40;3.47;;;7.00;79.60;;;;;;5052638;28;20044;-79
2021/03/12 06:56:56;;;;;;;20.55;3.45;;;7.00;79.40;;;;;;5052181;28;20441;-78
2021/03/12 06:59:32;;;;;;;19.77;3.42;;;7.00;79.60;;;;;;5052528;28;20040;-78
2021/03/12 07:02:00;;;;;;;21.35;3.88;;;7.10;79.50;;;;;;5052281;28;20036;-78
2021/03/12 07:04:27;;;;;;;26.73;3.38;;;7.00;79.80;;;;;;5052225;28;20371;-78
2021/03/12 07:06:53;;;;;;;15.75;2.75;;;7.00;79.90;;;;;;5036011;28;20519;-78
2021/03/12 07:09:21;;;;;;;20.98;3.33;;;7.10;79.90;;;;;;5052537;28;20037;-78
2021/03/12 07:12:04;;;;;;;21.35;3.40;;;7.10;80.00;;;;;;5035097;28;20570;-78
2021/03/12 07:14:33;;;;;;;21.25;3.28;;;7.10;80.10;;;;;;5053655;28;20108;-79
2021/03/12 07:17:00;;;;;;;22.38;2.88;;;7.20;80.00;;;;;;5036423;28;20409;-79
2021/03/12 07:19:26;;;;;;;26.17;3.97;;;7.20;80.00;;;;;;5053636;28;20151;-79
2021/03/12 07:21:57;;;;;;;23.77;3.25;;;7.20;80.00;;;;;;5052218;28;20537;-78
2021/03/12 07:24:23;;;;;;;21.55;3.50;;;7.30;80.10;;;;;;5053578;28;20488;-79
2021/03/12 07:26:54;;;;;;;16.90;2.65;;;7.30;80.10;;;;;;5053295;28;20025;-79
2021/03/12 07:29:22;;;;;;;18.27;2.90;;;7.30;80.10;;;;;;5052263;28;20020;-79
2021/03/12 07:31:51;;;;;;;31.85;3.38;;;7.40;80.00;;;;;;5051931;28;20060;-79
2021/03/12 07:34:20;;;;;;;16.60;3.40;;;7.40;80.00;;;;;;5053023;28;20111;-79
2021/03/12 07:36:51;;;;;;;22.73;2.92;;;7.40;80.20;;;;;;5051881;28;20032;-79
2021/03/12 07:39:22;;;;;;;19.38;2.95;;;7.50;80.30;;;;;;5053324;28;20107;-79
2021/03/12 07:41:48;;;;;;;16.50;2.92;;;7.50;80.10;;;;;;5053005;28;20104;-78
2021/03/12 07:44:16;;;;;;;19.55;2.88;;;7.50;80.20;;;;;;5018735;28;20029;-79
2021/03/12 07:46:44;;;;;;;20.58;3.08;;;7.50;80.10;;;;;;5053303;28;20021;-79
2021/03/12 07:49:28;;;;;;;20.30;3.42;;;7.60;80.20;;;;;;5051837;28;20021;-79
2021/03/12 07:51:57;;;;;;;21.42;2.90;;;7.60;80.10;;;;;;5052005;28;20108;-79
2021/03/12 07:54:35;;;;;;;18.17;3.13;;;7.70;80.00;;;;;;5036029;28;20466;-79
2021/03/12 07:57:04;;;;;;;18.77;2.65;;;7.80;79.90;;;;;;5053056;28;20111;-79
2021/03/12 07:59:48;;;;;;;;;;;7.90;79.80;;;;;;5053436;28;20052;-79
2021/03/12 08:02:14;;;;;;;22.45;3.53;;;7.90;79.70;;;;;;5051922;28;20011;-78
2021/03/12 08:04:40;;;;;;;24.38;3.92;;;8.00;79.50;;;;;;5052499;28;20025;-79
2021/03/12 08:07:18;;;;;;;20.67;3.20;;;8.10;79.40;;;;;;5053500;28;20029;-79
2021/03/12 08:09:49;;;;;;;28.63;4.30;;;8.20;79.30;;;;;;5073437;28;20032;-79
2021/03/12 08:12:38;;;;;;;17.65;3.28;;;8.20;79.10;;;;;;5088819;28;20120;-79
2021/03/12 08:15:15;;;;;;;;;;;8.20;79.00;;;;;;5080463;28;20044;-79
2021/03/12 08:17:56;;;;;;;27.95;4.28;;;8.20;78.90;;;;;;5051410;28;20054;-78
2021/03/12 08:20:25;;;;;;;17.67;3.08;;;8.30;79.50;;;;;;5051516;28;20107;-79
2021/03/12 08:22:51;;;;;;;18.40;3.13;;;8.30;78.70;;;;;;5053952;28;20381;-79
2021/03/12 08:25:35;;;;;;;19.20;3.95;;;8.30;78.40;;;;;;5055221;28;20069;-79
2021/03/12 08:28:22;;;;;;;20.10;3.33;;;8.40;78.40;;;;;;5056175;28;20083;-79
2021/03/12 08:30:51;;;;;;;22.75;4.32;;;8.40;78.30;;;;;;5054586;28;20021;-79
2021/03/12 08:33:22;;;;;;;15.55;3.10;;;8.40;78.30;;;;;;5054175;28;20029;-77
2021/03/12 08:35:53;;;;;;;22.95;3.55;;;8.50;78.10;;;;;;5053099;28;20176;-76
2021/03/12 08:38:28;;;;;;;24.38;3.60;;;8.50;77.60;;;;;;5074932;28;20025;-76
2021/03/12 08:40:56;;;;;;;22.30;3.67;;;8.60;77.40;;;;;;5055932;28;20029;-76
2021/03/12 08:43:25;;;;;;;29.83;4.18;;;8.70;77.00;;;;;;5054718;28;21769;-76
2021/03/12 08:45:55;;;;;;;25.02;4.53;;;8.80;76.80;;;;;;5055776;28;20014;-77
2021/03/12 08:48:30;;;;;;;24.00;3.30;;;8.90;76.40;;;;;;5054265;28;20489;-78
2021/03/12 08:51:02;;;;;;;14.88;2.97;;;9.10;76.00;;;;;;5052138;28;20021;-77
2021/03/12 08:53:51;;;;;;;25.92;3.92;;;9.20;76.10;;;;;;5054445;28;20032;-76
2021/03/12 08:56:24;;;;;;;;;;;9.40;75.90;;;;;;5056616;28;20052;-81
2021/03/12 08:58:50;;;;;;;29.90;4.75;;;9.50;74.70;;;;;;5055020;28;19952;-81
2021/03/12 09:01:21;;;;;;;21.08;3.53;;;9.60;74.40;;;;;;5056121;28;20148;-80
2021/03/12 09:03:58;;;;;;;24.70;3.90;;;9.70;74.20;;;;;;5036245;28;20032;-79
2021/03/12 09:06:27;;;;;;;33.55;4.15;;;9.70;73.30;;;;;;5036302;28;20021;-79
2021/03/12 09:08:53;;;;;;;22.23;3.50;;;9.60;73.10;;;;;;5036246;28;20443;-79
2021/03/12 09:11:21;;;;;;;23.30;3.22;;;9.50;73.10;;;;;;5064629;28;20063;-79
2021/03/12 09:13:49;;;;;;;17.33;3.58;;;9.50;73.70;;;;;;5051531;28;20030;-79
2021/03/12 09:16:25;;;;;;;19.88;3.45;;;9.50;73.50;;;;;;5054897;28;20435;-79
2021/03/12 09:18:53;;;;;;;24.95;3.67;;;9.50;73.50;;;;;;5054233;28;20044;-80
2021/03/12 09:21:21;;;;;;;18.00;3.67;;;9.50;73.30;;;;;;5054611;28;20397;-82
2021/03/12 09:23:47;;;;;;;18.50;3.20;;;9.60;73.20;;;;;;5054914;28;20433;-81
2021/03/12 09:26:19;;;;;;;18.65;3.80;;;9.70;72.90;;;;;;5055859;28;20049;-80
2021/03/12 09:28:46;;;;;;;22.98;3.70;;;9.80;72.90;;;;;;5054499;28;20036;-80
2021/03/12 09:31:14;;;;;;;22.40;3.65;;;9.90;72.10;;;;;;5054532;28;20041;-79
2021/03/12 09:33:50;;;;;;;18.88;3.20;;;10.10;72.00;;;;;;5053632;28;20051;-80
2021/03/12 09:36:32;;;;;;;21.60;3.80;;;10.30;71.70;;;;;;5054192;28;20114;-79
2021/03/12 09:39:18;;;;;;;19.80;3.30;;;10.40;71.10;;;;;;5035723;28;20030;-79
2021/03/12 09:41:51;;;;;;;19.67;3.47;;;10.50;71.30;;;;;;5053823;28;20427;-79
2021/03/12 09:44:17;;;;;;;20.63;3.45;;;10.60;70.20;;;;;;5054179;28;20078;-79
2021/03/12 09:46:44;;;;;;;18.95;3.28;;;10.60;70.20;;;;;;5053986;28;20025;-79
2021/03/12 09:49:19;;;;;;;15.90;3.25;;;10.70;69.50;;;;;;5054045;28;20477;-79
2021/03/12 09:51:48;;;;;;;20.25;3.60;;;10.60;68.60;;;;;;5055184;28;20508;-80
2021/03/12 09:54:16;;;;;;;26.83;4.32;;;10.50;69.30;;;;;;5053485;28;20065;-79
2021/03/12 09:56:48;;;;;;;20.77;3.80;;;10.40;69.50;;;;;;5053597;28;20453;-78
2021/03/12 09:59:13;;;;;;;15.55;2.60;;;10.30;69.40;;;;;;5055192;28;20049;-78
2021/03/12 10:01:42;;;;;;;21.00;3.15;;;10.40;70.00;;;;;;5055214;28;20477;-78
2021/03/12 10:04:29;;;;;;;20.63;4.45;;;10.50;69.20;;;;;;5055036;28;20021;-78
2021/03/12 10:07:00;;;;;;;20.13;2.88;;;10.70;69.40;;;;;;5053428;28;20017;-78
2021/03/12 10:09:26;;;;;;;19.10;3.22;;;10.80;68.20;;;;;;5054648;28;20025;-80
2021/03/12 10:11:53;;;;;;;19.90;3.00;;;10.80;67.80;;;;;;5054871;28;20104;-76
2021/03/12 10:14:27;;;;;;;20.63;3.15;;;10.80;68.30;;;;;;5054337;28;20024;-76
2021/03/12 10:17:10;;;;;;;13.13;3.25;;;10.90;68.30;;;;;;5053230;28;20547;-76
2021/03/12 10:19:43;;;;;;;16.48;3.17;;;10.90;68.50;;;;;;5052975;28;20029;-76
2021/03/12 10:22:41;;;;;;;13.23;2.80;;;10.90;68.70;;;;;;5054296;28;20413;-80
2021/03/12 10:25:07;;;;;;;16.77;3.15;;;11.00;68.00;;;;;;5017596;28;20041;-76
2021/03/12 10:27:35;;;;;;;15.13;2.92;;;11.00;67.50;;;;;;5040188;28;20032;-77
2021/03/12 10:30:08;;;;;;;13.82;2.90;;;11.20;67.50;;;;;;5054455;28;20031;-77
2021/03/12 10:32:55;;;;;;;18.85;2.70;;;11.30;67.30;;;;;;5053949;28;20033;-76
2021/03/12 10:35:22;;;;;;;15.40;3.03;;;11.50;66.60;;;;;;5052920;28;20094;-76
2021/03/12 10:37:49;;;;;;;19.70;2.72;;;11.70;66.20;;;;;;5052944;28;20059;-81
2021/03/12 10:40:16;;;;;;;19.75;2.85;;;12.00;65.90;;;;;;5036563;28;20546;-81
2021/03/12 10:42:42;;;;;;;17.90;3.42;;;12.00;65.30;;;;;;5054196;28;20051;-81
2021/03/12 10:45:26;;;;;;;19.80;3.03;;;12.00;64.40;;;;;;5053015;28;20029;-80
2021/03/12 10:48:05;;;;;;;14.07;3.03;;;12.00;64.40;;;;;;5052955;28;20025;-80
2021/03/12 10:50:39;;;;;;;19.08;3.38;;;12.10;63.70;;;;;;5053944;28;20457;-81
2021/03/12 10:53:14;;;;;;;12.07;2.70;;;12.10;62.80;;;;;;5054059;28;20029;-81
2021/03/12 10:55:48;;;;;;;16.23;3.38;;;12.10;63.60;;;;;;5036165;28;20094;-82
2021/03/12 10:58:40;;;;;;;13.48;2.85;;;12.20;63.10;;;;;;5054101;28;20484;-80
2021/03/12 11:01:14;;;;;;;11.82;2.90;;;12.30;62.50;;;;;;5052047;28;20037;-82
2021/03/12 11:03:42;;;;;;;12.93;2.65;;;12.30;62.60;;;;;;5053830;28;20025;-84
2021/03/12 11:06:10;;;;;;;12.82;2.60;;;12.10;62.40;;;;;;5052778;28;20024;-81
2021/03/12 11:08:36;;;;;;;18.17;3.08;;;12.00;63.00;;;;;;5052624;28;20022;-81
2021/03/12 11:11:05;;;;;;;16.38;3.03;;;11.90;64.20;;;;;;5054095;28;20464;-81
2021/03/12 11:13:30;;;;;;;11.70;2.65;;;11.90;63.20;;;;;;5051845;28;20087;-81
2021/03/12 11:15:56;;;;;;;11.98;2.60;;;11.90;62.90;;;;;;5035699;28;20037;-81
2021/03/12 11:18:24;;;;;;;17.35;2.78;;;11.90;63.50;;;;;;5052095;28;20469;-80
2021/03/12 11:20:50;;;;;;;12.45;2.55;;;12.10;62.50;;;;;;5053452;28;20020;-77
2021/03/12 11:23:15;;;;;;;17.15;2.53;;;12.10;62.70;;;;;;5035148;28;20052;-76
2021/03/12 11:25:41;;;;;;;19.30;2.70;;;12.10;61.80;;;;;;5035265;28;20485;-77
2021/03/12 11:28:07;;;;;;;18.83;3.05;;;12.00;61.70;;;;;;5019943;28;20086;-76
2021/03/12 11:30:33;;;;;;;14.48;2.88;;;12.00;62.30;;;;;;5051517;28;20545;-76
2021/03/12 11:32:59;;;;;;;15.45;2.50;;;11.90;62.40;;;;;;5057204;28;20033;-77
2021/03/12 11:35:24;;;;;;;16.85;2.70;;;11.80;62.80;;;;;;5052584;28;20124;-76
2021/03/12 11:37:50;;;;;;;12.85;2.50;;;11.60;63.00;;;;;;5057085;28;20103;-76
2021/03/12 11:40:16;;;;;;;18.40;2.63;;;11.60;63.60;;;;;;5045698;28;20113;-76
2021/03/12 11:42:43;;;;;;;15.00;2.75;;;11.50;63.40;;;;;;5052617;28;20036;-76
2021/03/12 11:45:12;;;;;;;13.85;2.90;;;11.40;63.70;;;;;;5050795;28;20067;-76
2021/03/12 11:47:38;;;;;;;9.52;2.40;;;11.30;63.90;;;;;;5052367;28;20017;-75
2021/03/12 11:50:07;;;;;;;19.88;3.28;;;11.20;64.10;;;;;;5048082;28;20021;-80
2021/03/12 11:52:33;;;;;;;17.00;3.00;;;11.20;64.40;;;;;;5068260;28;20027;-80
2021/03/12 11:54:59;;;;;;;16.08;2.70;;;11.10;64.90;;;;;;5048425;28;20033;-81
2021/03/12 11:57:25;;;;;;;18.95;3.20;;;11.20;65.40;;;;;;5051587;28;20079;-81
2021/03/12 11:59:51;;;;;;;16.15;2.60;;;11.20;65.00;;;;;;5051000;28;20116;-77
2021/03/12 12:02:17;;;;;;;12.18;2.55;;;11.30;65.00;;;;;;5051565;28;20125;-77
2021/03/12 12:04:44;;;;;;;17.25;2.83;;;11.40;64.90;;;;;;5051020;28;20637;-77
2021/03/12 12:07:10;;;;;;;15.27;3.17;;;11.50;64.40;;;;;;5050354;28;20033;-77
2021/03/12 12:09:36;;;;;;;11.57;2.70;;;11.60;64.40;;;;;;5051475;28;20029;-77
2021/03/12 12:12:03;;;;;;;9.75;2.20;;;11.70;64.80;;;;;;5034418;28;20036;-77
2021/03/12 12:14:28;;;;;;;14.32;2.78;;;11.70;63.60;;;;;;5050619;28;20056;-79
2021/03/12 12:16:54;;;;;;;15.23;2.42;;;11.90;63.20;;;;;;5051777;28;20071;-81
2021/03/12 12:19:20;;;;;;;15.88;2.90;;;11.90;63.20;;;;;;5051291;28;20037;-80
2021/03/12 12:21:46;;;;;;;16.33;2.55;;;11.80;64.10;;;;;;5051404;28;20033;-81
2021/03/12 12:24:12;;;;;;;14.32;2.33;;;11.70;65.80;;;;;;5041251;28;20092;-80
2021/03/12 12:26:38;;;;;;;17.10;3.13;;;11.40;68.10;;;;;;5034644;28;20102;-80
2021/03/12 12:29:05;;;;;;;16.55;2.70;;;11.20;68.90;;;;;;5052258;28;20421;-80
2021/03/12 12:31:34;;;;;;;13.70;2.33;;;11.00;69.90;;;;;;5051050;28;20124;-80
2021/03/12 12:34:00;;;;;;;9.85;2.25;;;10.90;70.70;;;;;;5051942;28;20162;-80
2021/03/12 12:36:27;;;;;;;14.55;3.08;;;10.80;71.30;;;;;;5052255;28;20075;-80
2021/03/12 12:38:54;;;;;;;13.90;2.58;;;10.90;71.50;;;;;;5051170;28;20078;-80
2021/03/12 12:41:20;;;;;;;17.60;2.47;;;11.00;71.80;;;;;;5051086;28;20037;-80
2021/03/12 12:43:48;;;;;;;17.83;3.05;;;11.20;71.90;;;;;;5052020;28;20052;-80
2021/03/12 12:46:14;;;;;;;10.43;2.72;;;11.20;70.60;;;;;;5049760;28;20444;-80
2021/03/12 12:48:40;;;;;;;19.75;2.78;;;11.10;70.00;;;;;;5048621;28;20691;-80
2021/03/12 12:51:06;;;;;;;12.13;2.40;;;11.10;69.70;;;;;;5065972;28;20028;-80
2021/03/12 12:53:32;;;;;;;15.63;2.83;;;11.10;69.80;;;;;;5048981;28;20398;-81